createdAt,value
2019-02-10T00:00:49.679Z,98.50
2019-02-10T00:01:49.661Z,98.50
2019-02-10T00:02:49.661Z,98.69
2019-02-10T00:03:49.621Z,98.22
2019-02-10T00:04:49.599Z,98.32
2019-02-10T00:05:49.582Z,98.27
2019-02-10T00:06:49.572Z,97.84
2019-02-10T00:07:49.605Z,98.03
2019-02-10T00:08:49.515Z,97.99
2019-02-10T00:09:49.500Z,98.08
2019-02-10T00:10:49.492Z,98.18
2019-02-10T00:11:49.462Z,98.03
2019-02-10T00:12:49.466Z,98.46
2019-02-10T00:13:49.447Z,98.08
2019-02-10T00:14:49.400Z,97.74
2019-02-10T00:15:49.377Z,98.46
2019-02-10T00:16:49.355Z,98.27
2019-02-10T00:17:49.339Z,98.22
2019-02-10T00:18:49.336Z,98.41
2019-02-10T00:19:49.301Z,98.41
2019-02-10T00:20:49.285Z,98.60
2019-02-10T00:21:49.257Z,98.74
2019-02-10T00:22:49.249Z,98.79
2019-02-10T00:23:49.240Z,98.74
2019-02-10T00:24:49.203Z,99.17
2019-02-10T00:25:49.181Z,98.84
2019-02-10T00:26:49.159Z,99.03
2019-02-10T00:27:49.141Z,99.17
2019-02-10T00:28:49.145Z,98.98
2019-02-10T00:29:49.117Z,98.88
2019-02-10T00:30:49.078Z,98.69
2019-02-10T00:31:49.060Z,98.74
2019-02-10T00:32:49.043Z,99.27
2019-02-10T00:33:49.018Z,99.13
2019-02-10T00:34:49.023Z,98.94
2019-02-10T00:35:48.982Z,99.22
2019-02-10T00:36:48.963Z,99.36
2019-02-10T00:37:49.884Z,99.27
2019-02-10T00:38:48.925Z,98.84
2019-02-10T00:39:48.903Z,98.55
2019-02-10T00:40:48.962Z,98.60
2019-02-10T00:41:48.864Z,98.65
2019-02-10T00:42:48.844Z,98.74
2019-02-10T00:43:48.828Z,98.55
2019-02-10T00:44:48.806Z,98.60
2019-02-10T00:45:48.794Z,98.55
2019-02-10T00:46:48.783Z,98.84
2019-02-10T00:47:48.745Z,98.94
2019-02-10T00:48:48.726Z,98.27
2019-02-10T00:49:48.709Z,98.94
2019-02-10T00:50:48.683Z,98.84
2019-02-10T00:51:48.671Z,98.60
2019-02-10T00:52:48.663Z,99.36
2019-02-10T00:53:48.628Z,98.60
2019-02-10T00:54:48.605Z,98.60
2019-02-10T00:55:48.593Z,98.41
2019-02-10T00:56:48.586Z,98.94
2019-02-10T00:57:48.546Z,98.32
2019-02-10T00:58:48.533Z,98.74
2019-02-10T00:59:48.515Z,99.36
2019-02-10T01:00:48.488Z,98.41
2019-02-10T01:01:48.467Z,98.94
2019-02-10T01:02:48.472Z,98.65
2019-02-10T01:03:48.441Z,99.17
2019-02-10T01:04:48.410Z,99.03
2019-02-10T01:05:48.393Z,99.03
2019-02-10T01:06:48.377Z,98.79
2019-02-10T01:07:48.365Z,98.69
2019-02-10T01:08:48.352Z,99.36
2019-02-10T01:09:48.314Z,98.60
2019-02-10T01:10:48.352Z,98.69
2019-02-10T01:11:48.276Z,99.17
2019-02-10T01:12:48.264Z,99.36
2019-02-10T01:13:48.235Z,99.74
2019-02-10T01:14:48.240Z,99.46
2019-02-10T01:15:48.200Z,99.36
2019-02-10T01:16:48.179Z,99.84
2019-02-10T01:17:48.173Z,99.84
2019-02-10T01:18:48.136Z,99.74
2019-02-10T01:19:48.116Z,99.93
2019-02-10T01:20:48.107Z,99.99
2019-02-10T01:21:48.075Z,99.99
2019-02-10T01:22:48.074Z,99.99
2019-02-10T01:23:48.039Z,99.99
2019-02-10T01:24:48.020Z,99.99
2019-02-10T01:25:48.006Z,99.99
2019-02-10T01:26:48.002Z,99.99
2019-02-10T01:27:47.961Z,99.99
2019-02-10T01:28:47.939Z,99.99
2019-02-10T01:29:47.921Z,99.99
2019-02-10T01:30:47.902Z,99.99
2019-02-10T01:31:47.882Z,99.99
2019-02-10T01:32:47.875Z,99.99
2019-02-10T01:33:47.842Z,99.99
2019-02-10T01:34:47.822Z,99.99
2019-02-10T01:35:47.800Z,99.99
2019-02-10T01:36:49.662Z,99.99
2019-02-10T01:37:47.781Z,99.99
2019-02-10T01:38:47.762Z,99.99
2019-02-10T01:39:47.723Z,99.99
2019-02-10T01:40:47.711Z,99.99
2019-02-10T01:41:47.687Z,99.99
2019-02-10T01:42:47.674Z,99.99
2019-02-10T01:43:47.653Z,99.99
2019-02-10T01:44:47.643Z,99.99
2019-02-10T01:45:47.604Z,99.99
2019-02-10T01:46:47.588Z,99.99
2019-02-10T01:47:47.570Z,99.99
2019-02-10T01:48:47.549Z,99.99
2019-02-10T01:49:47.546Z,99.99
2019-02-10T01:50:47.507Z,99.99
2019-02-10T01:51:47.493Z,99.99
2019-02-10T01:52:47.474Z,99.99
2019-02-10T01:53:47.452Z,99.99
2019-02-10T01:54:47.432Z,99.99
2019-02-10T01:55:47.430Z,99.99
2019-02-10T01:56:47.390Z,99.99
2019-02-10T01:57:47.864Z,99.99
2019-02-10T01:58:47.349Z,99.99
2019-02-10T01:59:47.332Z,99.99
2019-02-10T02:00:47.334Z,99.99
2019-02-10T02:01:47.293Z,99.99
2019-02-10T02:02:47.273Z,99.99
2019-02-10T02:03:47.253Z,99.99
2019-02-10T02:04:47.236Z,99.99
2019-02-10T02:05:47.231Z,99.99
2019-02-10T02:06:47.196Z,99.99
2019-02-10T02:07:47.191Z,99.99
2019-02-10T02:08:47.158Z,99.99
2019-02-10T02:09:47.134Z,99.99
2019-02-10T02:10:47.118Z,99.99
2019-02-10T02:11:47.118Z,99.99
2019-02-10T02:12:47.078Z,99.99
2019-02-10T02:13:47.056Z,99.99
2019-02-10T02:14:47.035Z,99.99
2019-02-10T02:15:47.018Z,99.99
2019-02-10T02:16:47.045Z,99.99
2019-02-10T02:17:46.993Z,99.99
2019-02-10T02:18:46.957Z,99.99
2019-02-10T02:19:46.939Z,99.99
2019-02-10T02:20:46.918Z,99.99
2019-02-10T02:21:46.896Z,99.99
2019-02-10T02:22:46.876Z,99.99
2019-02-10T02:23:46.875Z,99.99
2019-02-10T02:24:46.842Z,99.99
2019-02-10T02:25:46.817Z,99.99
2019-02-10T02:26:47.408Z,99.99
2019-02-10T02:27:46.788Z,99.99
2019-02-10T02:28:46.775Z,99.99
2019-02-10T02:29:46.756Z,99.99
2019-02-10T02:30:46.723Z,99.99
2019-02-10T02:31:46.697Z,99.99
2019-02-10T02:32:46.678Z,99.99
2019-02-10T02:33:46.667Z,99.99
2019-02-10T02:34:46.636Z,99.99
2019-02-10T02:35:46.635Z,99.99
2019-02-10T02:36:46.599Z,99.99
2019-02-10T02:37:46.578Z,99.99
2019-02-10T02:38:46.560Z,99.99
2019-02-10T02:39:46.555Z,99.99
2019-02-10T02:40:46.520Z,99.99
2019-02-10T02:41:46.495Z,99.99
2019-02-10T02:42:46.485Z,99.99
2019-02-10T02:43:46.456Z,99.99
2019-02-10T02:44:46.454Z,99.99
2019-02-10T02:45:46.416Z,99.99
2019-02-10T02:46:46.403Z,99.99
2019-02-10T02:47:46.376Z,99.99
2019-02-10T02:48:46.365Z,99.99
2019-02-10T02:49:46.349Z,99.99
2019-02-10T02:50:46.329Z,99.99
2019-02-10T02:51:46.295Z,99.99
2019-02-10T02:52:46.279Z,99.99
2019-02-10T02:53:46.254Z,99.99
2019-02-10T02:54:46.903Z,99.99
2019-02-10T02:55:46.239Z,99.99
2019-02-10T02:56:46.191Z,99.99
2019-02-10T02:57:46.170Z,99.99
2019-02-10T02:58:48.954Z,99.99
2019-02-10T02:59:46.130Z,99.99
2019-02-10T03:00:46.111Z,99.99
2019-02-10T03:01:46.103Z,99.99
2019-02-10T03:02:46.065Z,99.99
2019-02-10T03:03:46.049Z,99.99
2019-02-10T03:04:46.028Z,99.99
2019-02-10T03:05:46.025Z,99.99
2019-02-10T03:06:45.999Z,99.99
2019-02-10T03:07:45.987Z,99.99
2019-02-10T03:08:45.948Z,99.99
2019-02-10T03:09:45.923Z,99.99
2019-02-10T03:10:45.905Z,99.99
2019-02-10T03:11:45.886Z,99.99
2019-02-10T03:12:45.877Z,99.99
2019-02-10T03:13:45.859Z,99.99
2019-02-10T03:14:45.849Z,99.99
2019-02-10T03:15:45.808Z,99.99
2019-02-10T03:16:45.785Z,99.99
2019-02-10T03:17:45.760Z,99.99
2019-02-10T03:18:53.007Z,99.99
2019-02-10T03:19:45.719Z,99.99
2019-02-10T03:20:45.715Z,99.99
2019-02-10T03:21:45.677Z,99.99
2019-02-10T03:22:45.660Z,99.99
2019-02-10T03:23:45.647Z,99.99
2019-02-10T03:24:45.617Z,99.99
2019-02-10T03:25:45.625Z,99.99
2019-02-10T03:26:45.576Z,99.99
2019-02-10T03:27:45.550Z,99.99
2019-02-10T03:28:45.533Z,99.99
2019-02-10T03:29:45.530Z,99.99
2019-02-10T03:30:45.518Z,99.99
2019-02-10T03:31:45.488Z,99.99
2019-02-10T03:32:45.454Z,99.99
2019-02-10T03:33:45.434Z,99.99
2019-02-10T03:34:45.402Z,99.99
2019-02-10T03:35:45.386Z,99.99
2019-02-10T03:36:45.390Z,99.99
2019-02-10T03:37:45.342Z,99.99
2019-02-10T03:38:45.323Z,99.99
2019-02-10T03:39:45.297Z,99.99
2019-02-10T03:40:45.285Z,99.99
2019-02-10T03:41:45.260Z,99.99
2019-02-10T03:42:45.260Z,99.99
2019-02-10T03:43:45.218Z,99.99
2019-02-10T03:44:45.204Z,99.99
2019-02-10T03:45:45.175Z,99.99
2019-02-10T03:46:45.155Z,99.99
2019-02-10T03:47:45.136Z,99.99
2019-02-10T03:48:45.135Z,99.99
2019-02-10T03:49:45.095Z,99.99
2019-02-10T03:50:45.091Z,99.99
2019-02-10T03:51:45.060Z,99.99
2019-02-10T03:52:45.031Z,99.99
2019-02-10T03:53:45.008Z,99.99
2019-02-10T03:54:45.007Z,99.99
2019-02-10T03:55:44.972Z,99.99
2019-02-10T03:56:44.949Z,99.99
2019-02-10T03:57:44.955Z,99.99
2019-02-10T03:58:44.900Z,99.99
2019-02-10T03:59:44.882Z,99.99
2019-02-10T04:00:44.880Z,99.99
2019-02-10T04:01:44.838Z,99.99
2019-02-10T04:02:44.835Z,99.99
2019-02-10T04:03:44.798Z,99.99
2019-02-10T04:04:44.779Z,99.99
2019-02-10T04:05:44.771Z,99.99
2019-02-10T04:06:44.741Z,99.99
2019-02-10T04:07:44.726Z,99.99
2019-02-10T04:08:44.693Z,99.99
2019-02-10T04:09:44.672Z,99.99
2019-02-10T04:10:44.657Z,99.99
2019-02-10T04:11:44.655Z,99.99
2019-02-10T04:12:44.609Z,99.99
2019-02-10T04:13:44.587Z,99.99
2019-02-10T04:14:44.563Z,99.99
2019-02-10T04:15:44.544Z,99.99
2019-02-10T04:16:44.529Z,99.99
2019-02-10T04:17:44.520Z,99.99
2019-02-10T04:18:44.479Z,99.99
2019-02-10T04:19:44.466Z,99.99
2019-02-10T04:20:44.440Z,99.99
2019-02-10T04:21:44.442Z,99.99
2019-02-10T04:22:44.409Z,99.99
2019-02-10T04:23:44.374Z,99.99
2019-02-10T04:24:44.351Z,99.99
2019-02-10T04:25:44.344Z,99.99
2019-02-10T04:26:44.307Z,99.99
2019-02-10T04:27:44.288Z,99.99
2019-02-10T04:28:44.302Z,99.99
2019-02-10T04:29:44.250Z,99.99
2019-02-10T04:30:44.228Z,99.99
2019-02-10T04:31:44.207Z,99.99
2019-02-10T04:32:44.188Z,99.99
2019-02-10T04:33:44.176Z,99.99
2019-02-10T04:34:44.147Z,99.99
2019-02-10T04:35:44.938Z,99.99
2019-02-10T04:36:44.103Z,99.99
2019-02-10T04:37:46.340Z,99.99
2019-02-10T04:38:44.073Z,99.99
2019-02-10T04:39:44.053Z,99.99
2019-02-10T04:40:44.012Z,99.99
2019-02-10T04:41:43.997Z,99.99
2019-02-10T04:42:43.979Z,99.99
2019-02-10T04:43:43.957Z,99.99
2019-02-10T04:44:43.972Z,99.99
2019-02-10T04:45:43.911Z,99.99
2019-02-10T04:46:43.887Z,99.99
2019-02-10T04:47:43.866Z,99.99
2019-02-10T04:48:44.434Z,99.99
2019-02-10T04:49:43.848Z,99.99
2019-02-10T04:50:43.824Z,99.99
2019-02-10T04:51:43.783Z,99.99
2019-02-10T04:52:43.771Z,99.99
2019-02-10T04:53:43.738Z,99.99
2019-02-10T04:54:43.721Z,99.99
2019-02-10T04:55:43.700Z,99.99
2019-02-10T04:56:43.694Z,99.99
2019-02-10T04:57:43.659Z,99.99
2019-02-10T04:58:43.635Z,99.99
2019-02-10T04:59:43.613Z,99.99
2019-02-10T05:00:43.592Z,99.99
2019-02-10T05:01:43.600Z,99.99
2019-02-10T05:02:43.554Z,99.99
2019-02-10T05:03:43.530Z,99.99
2019-02-10T05:04:43.517Z,99.99
2019-02-10T05:05:43.488Z,99.99
2019-02-10T05:06:43.482Z,99.99
2019-02-10T05:07:43.444Z,99.99
2019-02-10T05:08:43.422Z,99.99
2019-02-10T05:09:43.408Z,99.99
2019-02-10T05:10:43.384Z,99.99
2019-02-10T05:11:43.361Z,99.99
2019-02-10T05:12:43.363Z,99.99
2019-02-10T05:13:43.316Z,99.99
2019-02-10T05:14:43.301Z,99.99
2019-02-10T05:15:43.276Z,99.99
2019-02-10T05:16:44.958Z,99.99
2019-02-10T05:17:43.254Z,99.99
2019-02-10T05:18:43.232Z,99.99
2019-02-10T05:19:43.199Z,99.99
2019-02-10T05:20:43.172Z,99.99
2019-02-10T05:21:43.154Z,99.99
2019-02-10T05:22:43.129Z,99.99
2019-02-10T05:23:43.128Z,99.99
2019-02-10T05:24:43.096Z,99.99
2019-02-10T05:25:43.938Z,99.99
2019-02-10T05:26:43.046Z,99.99
2019-02-10T05:27:43.022Z,99.99
2019-02-10T05:28:42.998Z,99.99
2019-02-10T05:29:42.999Z,99.99
2019-02-10T05:30:42.974Z,99.99
2019-02-10T05:31:42.937Z,99.99
2019-02-10T05:32:42.921Z,99.99
2019-02-10T05:33:42.927Z,99.99
2019-02-10T05:34:42.883Z,99.99
2019-02-10T05:35:42.856Z,99.99
2019-02-10T05:36:42.842Z,99.99
2019-02-10T05:37:42.808Z,99.99
2019-02-10T05:38:42.789Z,99.99
2019-02-10T05:39:42.795Z,99.99
2019-02-10T05:40:42.752Z,99.99
2019-02-10T05:41:42.727Z,99.99
2019-02-10T05:42:42.708Z,99.99
2019-02-10T05:43:42.693Z,99.99
2019-02-10T05:44:42.670Z,99.99
2019-02-10T05:45:42.673Z,99.99
2019-02-10T05:46:42.628Z,99.99
2019-02-10T05:47:42.612Z,99.99
2019-02-10T05:48:42.592Z,99.99
2019-02-10T05:49:42.566Z,99.99
2019-02-10T05:50:42.556Z,99.99
2019-02-10T05:51:42.519Z,99.99
2019-02-10T05:52:42.502Z,99.99
2019-02-10T05:53:42.476Z,99.99
2019-02-10T05:54:42.457Z,99.99
2019-02-10T05:55:43.400Z,99.99
2019-02-10T05:56:42.415Z,99.99
2019-02-10T05:57:42.392Z,99.99
2019-02-10T05:58:42.395Z,99.99
2019-02-10T05:59:42.355Z,99.99
2019-02-10T06:00:42.331Z,99.99
2019-02-10T06:01:42.321Z,99.99
2019-02-10T06:02:42.289Z,99.99
2019-02-10T06:03:42.290Z,99.99
2019-02-10T06:04:42.250Z,99.99
2019-02-10T06:05:42.227Z,99.99
2019-02-10T06:06:42.208Z,99.99
2019-02-10T06:07:42.186Z,99.99
2019-02-10T06:08:42.161Z,99.99
2019-02-10T06:09:42.160Z,99.99
2019-02-10T06:10:42.121Z,99.99
2019-02-10T06:11:42.102Z,99.99
2019-02-10T06:12:42.080Z,99.99
2019-02-10T06:13:42.057Z,99.99
2019-02-10T06:14:42.052Z,99.99
2019-02-10T06:15:42.033Z,99.99
2019-02-10T06:16:41.996Z,99.99
2019-02-10T06:17:41.977Z,99.99
2019-02-10T06:18:41.955Z,99.99
2019-02-10T06:19:41.929Z,99.99
2019-02-10T06:20:41.927Z,99.99
2019-02-10T06:21:41.889Z,99.99
2019-02-10T06:22:41.867Z,99.99
2019-02-10T06:23:41.849Z,99.99
2019-02-10T06:24:41.824Z,99.99
2019-02-10T06:25:41.806Z,99.99
2019-02-10T06:26:41.814Z,99.99
2019-02-10T06:27:41.764Z,99.99
2019-02-10T06:28:41.751Z,99.99
2019-02-10T06:29:41.722Z,99.99
2019-02-10T06:30:41.716Z,99.99
2019-02-10T06:31:41.680Z,99.99
2019-02-10T06:32:41.681Z,99.99
2019-02-10T06:33:41.656Z,99.99
2019-02-10T06:34:41.621Z,99.99
2019-02-10T06:35:41.602Z,99.99
2019-02-10T06:36:41.581Z,99.99
2019-02-10T06:37:41.575Z,99.99
2019-02-10T06:38:41.538Z,99.99
2019-02-10T06:39:41.520Z,99.99
2019-02-10T06:40:41.501Z,99.99
2019-02-10T06:41:41.474Z,99.99
2019-02-10T06:42:41.480Z,99.99
2019-02-10T06:43:41.431Z,99.99
2019-02-10T06:44:41.416Z,99.99
2019-02-10T06:45:41.392Z,99.99
2019-02-10T06:46:41.378Z,99.99
2019-02-10T06:47:41.358Z,99.99
2019-02-10T06:48:41.355Z,99.99
2019-02-10T06:49:41.309Z,99.99
2019-02-10T06:50:42.409Z,99.99
2019-02-10T06:51:41.270Z,99.99
2019-02-10T06:52:41.253Z,99.99
2019-02-10T06:53:41.249Z,99.99
2019-02-10T06:54:41.207Z,99.99
2019-02-10T06:55:41.190Z,99.99
2019-02-10T06:56:41.169Z,99.99
2019-02-10T06:57:41.143Z,99.99
2019-02-10T06:58:41.122Z,99.99
2019-02-10T06:59:41.119Z,99.99
2019-02-10T07:00:41.082Z,99.99
2019-02-10T07:01:41.064Z,99.99
2019-02-10T07:02:41.061Z,99.99
2019-02-10T07:03:41.031Z,99.99
2019-02-10T07:04:41.003Z,99.99
2019-02-10T07:05:40.978Z,99.99
2019-02-10T07:06:40.968Z,99.99
2019-02-10T07:07:40.942Z,99.99
2019-02-10T07:08:41.040Z,99.99
2019-02-10T07:09:40.896Z,99.99
2019-02-10T07:10:40.874Z,99.99
2019-02-10T07:11:40.863Z,99.99
2019-02-10T07:12:40.846Z,99.99
2019-02-10T07:13:40.836Z,99.99
2019-02-10T07:14:40.800Z,99.99
2019-02-10T07:15:40.777Z,99.99
2019-02-10T07:16:40.777Z,99.99
2019-02-10T07:17:40.742Z,99.99
2019-02-10T07:18:40.715Z,99.99
2019-02-10T07:19:40.697Z,99.99
2019-02-10T07:20:40.712Z,99.99
2019-02-10T07:21:40.659Z,99.99
2019-02-10T07:22:40.650Z,99.99
2019-02-10T07:23:40.613Z,99.99
2019-02-10T07:24:40.591Z,99.99
2019-02-10T07:25:40.585Z,99.99
2019-02-10T07:26:40.558Z,99.99
2019-02-10T07:27:40.554Z,99.99
2019-02-10T07:28:40.513Z,99.99
2019-02-10T07:29:40.487Z,99.99
2019-02-10T07:30:40.470Z,99.99
2019-02-10T07:31:40.450Z,99.99
2019-02-10T07:32:40.492Z,99.99
2019-02-10T07:33:40.410Z,99.99
2019-02-10T07:34:47.943Z,99.99
2019-02-10T07:35:40.375Z,99.99
2019-02-10T07:36:40.346Z,99.99
2019-02-10T07:37:40.340Z,99.99
2019-02-10T07:38:40.327Z,99.99
2019-02-10T07:39:40.287Z,99.99
2019-02-10T07:40:40.270Z,99.99
2019-02-10T07:41:40.248Z,99.99
2019-02-10T07:42:40.225Z,99.99
2019-02-10T07:43:40.208Z,99.99
2019-02-10T07:44:40.211Z,99.99
2019-02-10T07:45:40.164Z,99.99
2019-02-10T07:46:40.159Z,99.99
2019-02-10T07:47:40.179Z,99.99
2019-02-10T07:48:40.128Z,99.99
2019-02-10T07:49:40.105Z,99.99
2019-02-10T07:50:40.072Z,99.99
2019-02-10T07:51:40.048Z,99.99
2019-02-10T07:52:40.027Z,99.99
2019-02-10T07:53:40.006Z,99.99
2019-02-10T07:54:42.287Z,99.99
2019-02-10T07:55:39.979Z,99.99
2019-02-10T07:56:39.951Z,99.99
2019-02-10T07:57:39.927Z,99.99
2019-02-10T07:58:39.908Z,99.99
2019-02-10T07:59:39.886Z,99.99
2019-02-10T08:00:39.884Z,99.99
2019-02-10T08:01:39.865Z,99.99
2019-02-10T08:02:39.829Z,99.99
2019-02-10T08:03:39.806Z,99.99
2019-02-10T08:06:33.401Z,99.99
2019-02-10T08:07:33.370Z,99.99
2019-02-10T08:08:33.347Z,99.99
2019-02-10T08:09:33.328Z,99.99
2019-02-10T08:10:33.305Z,99.99
2019-02-10T08:11:33.284Z,99.99
2019-02-10T08:12:33.334Z,99.99
2019-02-10T08:13:33.256Z,99.99
2019-02-10T08:14:33.228Z,99.99
2019-02-10T08:15:33.210Z,99.99
2019-02-10T08:16:33.184Z,99.99
2019-02-10T08:17:33.185Z,99.99
2019-02-10T08:18:33.152Z,99.99
2019-02-10T08:19:33.127Z,99.99
2019-02-10T08:20:33.114Z,99.99
2019-02-10T08:21:33.099Z,99.99
2019-02-10T08:22:33.094Z,99.99
2019-02-10T08:23:33.070Z,99.99
2019-02-10T08:24:33.088Z,99.99
2019-02-10T08:25:33.026Z,99.99
2019-02-10T08:26:32.999Z,99.99
2019-02-10T08:27:32.973Z,99.99
2019-02-10T08:28:32.958Z,99.99
2019-02-10T08:29:32.948Z,99.99
2019-02-10T08:30:32.914Z,99.99
2019-02-10T08:31:32.897Z,99.99
2019-02-10T08:32:32.890Z,99.99
2019-02-10T08:33:32.857Z,99.99
2019-02-10T08:34:32.841Z,99.99
2019-02-10T08:35:32.838Z,99.99
2019-02-10T08:36:32.796Z,99.99
2019-02-10T08:37:32.786Z,99.99
2019-02-10T08:38:32.759Z,99.99
2019-02-10T08:39:32.739Z,99.99
2019-02-10T08:40:32.721Z,99.99
2019-02-10T08:41:32.725Z,99.99
2019-02-10T08:42:32.682Z,99.99
2019-02-10T08:43:32.669Z,99.99
2019-02-10T08:44:32.643Z,99.99
2019-02-10T08:45:32.624Z,99.99
2019-02-10T08:46:32.616Z,99.99
2019-02-10T08:47:33.681Z,99.99
2019-02-10T08:48:32.565Z,99.99
2019-02-10T08:49:32.550Z,99.99
2019-02-10T08:50:32.524Z,99.99
2019-02-10T08:51:32.525Z,99.99
2019-02-10T08:52:32.496Z,99.99
2019-02-10T08:53:32.470Z,99.99
2019-02-10T08:54:32.451Z,99.99
2019-02-10T08:55:32.431Z,99.99
2019-02-10T08:56:32.426Z,99.99
2019-02-10T08:57:32.388Z,99.99
2019-02-10T08:58:32.374Z,99.99
2019-02-10T08:59:32.355Z,99.99
2019-02-10T09:00:32.335Z,99.99
2019-02-10T09:01:32.349Z,99.99
2019-02-10T09:02:32.316Z,99.99
2019-02-10T09:03:32.279Z,99.99
2019-02-10T09:04:32.259Z,99.99
2019-02-10T09:05:32.240Z,99.99
2019-02-10T09:06:32.218Z,99.99
2019-02-10T09:07:32.228Z,99.99
2019-02-10T09:08:32.210Z,99.99
2019-02-10T09:09:32.165Z,99.99
2019-02-10T09:10:32.140Z,99.99
2019-02-10T09:11:32.125Z,99.99
2019-02-10T09:12:32.105Z,99.99
2019-02-10T09:13:32.117Z,99.99
2019-02-10T09:14:32.064Z,99.99
2019-02-10T09:15:32.049Z,99.99
2019-02-10T09:16:32.043Z,99.99
2019-02-10T09:17:32.010Z,99.99
2019-02-10T09:18:31.994Z,99.99
2019-02-10T09:19:31.993Z,99.99
2019-02-10T09:20:31.952Z,99.99
2019-02-10T09:21:31.951Z,99.99
2019-02-10T09:22:31.922Z,99.99
2019-02-10T09:23:31.895Z,99.99
2019-02-10T09:24:31.893Z,99.99
2019-02-10T09:25:31.851Z,99.99
2019-02-10T09:26:31.840Z,99.99
2019-02-10T09:27:31.821Z,99.99
2019-02-10T09:28:31.801Z,99.99
2019-02-10T09:29:31.781Z,99.99
2019-02-10T09:30:31.789Z,99.99
2019-02-10T09:31:33.187Z,99.99
2019-02-10T09:32:31.727Z,99.99
2019-02-10T09:33:31.752Z,99.99
2019-02-10T09:34:31.681Z,99.99
2019-02-10T09:35:31.676Z,99.99
2019-02-10T09:36:31.663Z,99.99
2019-02-10T09:37:31.633Z,99.99
2019-02-10T09:38:31.619Z,99.99
2019-02-10T09:39:31.588Z,99.99
2019-02-10T09:40:31.693Z,99.99
2019-02-10T09:41:31.552Z,99.99
2019-02-10T09:42:31.548Z,99.99
2019-02-10T09:43:31.502Z,99.99
2019-02-10T09:44:31.489Z,99.99
2019-02-10T09:45:31.461Z,99.99
2019-02-10T09:46:31.549Z,99.99
2019-02-10T09:47:31.422Z,99.99
2019-02-10T09:48:31.489Z,99.99
2019-02-10T09:49:31.384Z,99.99
2019-02-10T09:50:31.368Z,99.99
2019-02-10T09:51:31.348Z,99.99
2019-02-10T09:52:31.332Z,99.99
2019-02-10T09:53:31.321Z,99.99
2019-02-10T09:54:31.326Z,99.99
2019-02-10T09:55:31.268Z,99.99
2019-02-10T09:56:31.263Z,99.99
2019-02-10T09:57:31.224Z,99.99
2019-02-10T09:58:31.209Z,99.99
2019-02-10T09:59:31.215Z,99.99
2019-02-10T10:00:31.166Z,99.99
2019-02-10T10:01:31.143Z,99.99
2019-02-10T10:02:31.121Z,99.99
2019-02-10T10:03:31.104Z,99.99
2019-02-10T10:04:31.087Z,99.99
2019-02-10T10:05:31.093Z,99.99
2019-02-10T10:06:31.045Z,99.99
2019-02-10T10:07:31.028Z,99.99
2019-02-10T10:08:31.015Z,99.99
2019-02-10T10:09:30.995Z,99.99
2019-02-10T10:10:30.964Z,99.99
2019-02-10T10:11:30.965Z,99.99
2019-02-10T10:12:30.935Z,99.99
2019-02-10T10:13:30.908Z,99.99
2019-02-10T10:14:31.183Z,99.99
2019-02-10T10:15:30.884Z,99.99
2019-02-10T10:16:30.847Z,99.99
2019-02-10T10:17:30.834Z,99.99
2019-02-10T10:18:30.808Z,99.99
2019-02-10T10:19:30.797Z,99.99
2019-02-10T10:20:30.786Z,99.99
2019-02-10T10:21:30.749Z,99.99
2019-02-10T10:22:30.728Z,99.99
2019-02-10T10:23:30.725Z,99.99
2019-02-10T10:24:30.687Z,99.99
2019-02-10T10:25:30.668Z,99.99
2019-02-10T10:26:30.647Z,99.99
2019-02-10T10:27:30.652Z,99.99
2019-02-10T10:28:30.608Z,99.99
2019-02-10T10:29:30.587Z,99.99
2019-02-10T10:30:30.568Z,99.99
2019-02-10T10:31:30.559Z,99.99
2019-02-10T10:32:30.531Z,99.99
2019-02-10T10:33:31.849Z,99.99
2019-02-10T10:34:30.495Z,99.99
2019-02-10T10:35:30.477Z,99.99
2019-02-10T10:36:30.452Z,99.99
2019-02-10T10:37:30.436Z,99.99
2019-02-10T10:38:30.428Z,99.99
2019-02-10T10:39:30.410Z,99.99
2019-02-10T10:40:30.373Z,99.99
2019-02-10T10:41:30.350Z,99.99
2019-02-10T10:42:30.333Z,99.99
2019-02-10T10:43:30.312Z,99.99
2019-02-10T10:44:30.289Z,99.99
2019-02-10T10:45:30.288Z,99.99
2019-02-10T10:46:30.253Z,99.99
2019-02-10T10:47:30.233Z,99.99
2019-02-10T10:48:30.209Z,99.99
2019-02-10T10:49:30.193Z,99.99
2019-02-10T10:50:30.188Z,99.99
2019-02-10T10:51:30.155Z,99.99
2019-02-10T10:52:30.133Z,99.99
2019-02-10T10:53:30.127Z,99.99
2019-02-10T10:54:30.103Z,99.99
2019-02-10T10:55:30.098Z,99.99
2019-02-10T10:56:30.079Z,99.99
2019-02-10T10:57:30.054Z,99.99
2019-02-10T10:58:30.012Z,99.99
2019-02-10T10:59:29.995Z,99.99
2019-02-10T11:00:29.977Z,99.99
2019-02-10T11:01:29.954Z,99.99
2019-02-10T11:02:29.941Z,99.99
2019-02-10T11:03:29.949Z,99.99
2019-02-10T11:04:29.899Z,99.99
2019-02-10T11:05:29.883Z,99.99
2019-02-10T11:06:29.862Z,99.99
2019-02-10T11:07:29.855Z,99.99
2019-02-10T11:08:29.832Z,99.99
2019-02-10T11:09:35.422Z,99.99
2019-02-10T11:10:29.782Z,99.99
2019-02-10T11:11:29.764Z,99.99
2019-02-10T11:12:29.764Z,99.99
2019-02-10T11:13:29.723Z,99.99
2019-02-10T11:14:29.706Z,99.99
2019-02-10T11:15:29.686Z,99.99
2019-02-10T11:16:29.665Z,99.99
2019-02-10T11:17:29.656Z,99.99
2019-02-10T11:18:29.642Z,99.99
2019-02-10T11:19:29.616Z,99.99
2019-02-10T11:20:29.608Z,99.99
2019-02-10T11:21:29.571Z,99.99
2019-02-10T11:22:29.560Z,99.99
2019-02-10T11:23:29.583Z,99.99
2019-02-10T11:24:29.543Z,99.99
2019-02-10T11:25:29.510Z,99.99
2019-02-10T11:26:29.475Z,99.99
2019-02-10T11:27:29.457Z,99.99
2019-02-10T11:28:29.444Z,99.99
2019-02-10T11:29:29.446Z,99.99
2019-02-10T11:30:29.403Z,99.99
2019-02-10T11:31:29.382Z,99.99
2019-02-10T11:32:29.354Z,99.99
2019-02-10T11:33:29.340Z,99.99
2019-02-10T11:34:29.318Z,99.99
2019-02-10T11:35:29.322Z,99.99
2019-02-10T11:36:29.286Z,99.99
2019-02-10T11:37:29.258Z,99.99
2019-02-10T11:38:29.240Z,99.99
2019-02-10T11:39:29.223Z,99.99
2019-02-10T11:40:29.240Z,99.99
2019-02-10T11:41:29.181Z,99.99
2019-02-10T11:42:29.174Z,99.99
2019-02-10T11:43:29.135Z,99.99
2019-02-10T11:44:29.125Z,99.99
2019-02-10T11:45:29.107Z,99.99
2019-02-10T11:46:29.116Z,99.99
2019-02-10T11:47:29.071Z,99.99
2019-02-10T11:48:29.046Z,99.99
2019-02-10T11:49:29.032Z,99.99
2019-02-10T11:50:29.009Z,99.99
2019-02-10T11:51:28.996Z,99.99
2019-02-10T11:52:29.017Z,99.99
2019-02-10T11:53:28.953Z,99.99
2019-02-10T11:54:28.940Z,99.99
2019-02-10T11:55:28.934Z,99.99
2019-02-10T11:56:28.901Z,99.99
2019-02-10T11:57:28.880Z,99.99
2019-02-10T11:58:28.859Z,99.99
2019-02-10T11:59:28.837Z,99.99
2019-02-10T12:00:28.814Z,99.99
2019-02-10T12:01:28.812Z,99.99
2019-02-10T12:02:28.780Z,99.99
2019-02-10T12:03:28.754Z,99.99
2019-02-10T12:04:28.751Z,99.99
2019-02-10T12:05:28.739Z,99.99
2019-02-10T12:06:28.699Z,99.99
2019-02-10T12:07:28.686Z,99.99
2019-02-10T12:08:35.325Z,99.99
2019-02-10T12:09:28.655Z,99.99
2019-02-10T12:10:28.622Z,99.99
2019-02-10T12:11:28.617Z,99.99
2019-02-10T12:12:28.600Z,99.99
2019-02-10T12:13:28.583Z,99.99
2019-02-10T12:14:28.542Z,99.99
2019-02-10T12:15:28.528Z,99.99
2019-02-10T12:16:28.523Z,99.99
2019-02-10T12:17:28.491Z,99.99
2019-02-10T12:18:28.467Z,99.99
2019-02-10T12:19:28.446Z,99.99
2019-02-10T12:20:28.430Z,99.99
2019-02-10T12:21:28.425Z,99.99
2019-02-10T12:22:28.414Z,99.99
2019-02-10T12:23:28.371Z,99.99
2019-02-10T12:24:28.372Z,99.99
2019-02-10T12:25:28.367Z,99.99
2019-02-10T12:26:28.316Z,99.99
2019-02-10T12:27:28.290Z,99.99
2019-02-10T12:28:28.286Z,99.99
2019-02-10T12:29:28.254Z,99.99
2019-02-10T12:30:28.240Z,99.99
2019-02-10T12:31:28.215Z,99.99
2019-02-10T12:32:28.200Z,99.99
2019-02-10T12:33:28.174Z,99.99
2019-02-10T12:34:28.180Z,99.99
2019-02-10T12:35:28.137Z,99.99
2019-02-10T12:36:28.145Z,99.99
2019-02-10T12:37:32.454Z,99.99
2019-02-10T12:38:28.082Z,99.99
2019-02-10T12:39:28.065Z,99.99
2019-02-10T12:40:28.055Z,99.99
2019-02-10T12:41:28.041Z,99.99
2019-02-10T12:42:27.998Z,99.99
2019-02-10T12:43:27.988Z,99.99
2019-02-10T12:44:27.958Z,99.99
2019-02-10T12:45:27.931Z,99.99
2019-02-10T12:46:27.935Z,99.99
2019-02-10T12:47:27.898Z,99.99
2019-02-10T12:48:27.879Z,99.99
2019-02-10T12:49:27.870Z,99.99
2019-02-10T12:50:27.835Z,99.99
2019-02-10T12:51:27.820Z,99.99
2019-02-10T12:52:27.835Z,99.99
2019-02-10T12:53:27.780Z,99.99
2019-02-10T12:54:27.760Z,99.99